18 Jun 2019 03:27 UTC 2019169+03:27 UTC

Overview Datums Bench Marks Data Query Site Visit Daily QC Messages Attributes

043: Nueces Delta 3

27° 53' 1" N   97° 31' 59" W
NUDE3
The Coastal Bend Bays & Estuaries Program Coastal Bend Bays and Estuaries Program

Station Information

Nueces Delta 3
Nueces Delta 3
more pictures
 
Station Name:Nueces Delta 3
DNR ID:043
Location:27° 53' 1" N, 97° 31' 59" W

Water Level Forecasts

Latest Observations

Series Metric English Marine Observed at
Water Temperature 30.4 °C 86.7 °F 86.7 °F Jun 17 22:18 CDT
00h07m ago
Salinity 19.400 psu 19.400 psu 19.400 psu Jun 17 22:18 CDT
00h07m ago

Maps

Nueces Delta 3
All Stations in Area
Entire Network
 

Recent Observations

Date/Time Water
Temp (°F)
Sal (psu)
Jun 17 22:00 CDT 87.1 19.400
Jun 17 21:00 CDT 88.0 19.600
Jun 17 20:00 CDT 88.5 19.600
Jun 17 19:00 CDT 88.9 19.600
Jun 17 18:00 CDT 88.2 19.600
Jun 17 17:00 CDT 86.7 19.600
Jun 17 16:00 CDT 84.7 19.500
Jun 17 15:00 CDT 84.9 19.700
Jun 17 14:00 CDT 83.1 19.800
Jun 17 13:00 CDT 82.4 19.700
Jun 17 12:00 CDT 82.0 19.500
Jun 17 11:00 CDT 81.5 19.500
Jun 17 10:00 CDT 80.8 19.700
Jun 17 09:00 CDT 80.4 19.800
Jun 17 08:00 CDT 80.2 19.800
Jun 17 07:00 CDT 80.4 19.800
Jun 17 06:00 CDT 81.1 19.800
Jun 17 05:00 CDT 82.0 19.800
Jun 17 04:00 CDT 82.8 19.800
Jun 17 03:00 CDT 82.9 19.800
Jun 17 02:00 CDT 84.0 19.800
Jun 17 01:00 CDT 85.1 19.700
Jun 17 00:00 CDT 85.8 19.700
Jun 16 23:00 CDT 86.2 19.700
Jun 16 22:00 CDT 86.9 19.700

Historical Data Availability